Time;durP1;ratioP1;P1;durP2;ratioP2;P2;SDS_P1;SDS_P2;PMS_P1;PMS_P2;Temp;Humidity;BMP_temperature;BMP_pressure;BME280_temperature;BME280_humidity;BME280_pressure;Samples;Min_cycle;Max_cycle;Signal;HPM_P1;HPM_P2
2023/12/14 00:02:18;;;;;;;;;;;;;;;17.45;45.78;99896.03;4978290;28;1111;-54
2023/12/14 00:04:43;;;;;;;;;;;;;;;16.68;47.60;99896.38;4978315;28;1077;-55
2023/12/14 00:07:10;;;;;;;;;;;;;;;16.19;48.60;99904.66;4990606;28;1906;-54
2023/12/14 00:09:36;;;;;;;;;;;;;;;15.89;49.64;99897.59;4965220;28;990;-52
2023/12/14 00:12:01;;;;;;;;;;;;;;;16.70;47.76;99902.38;4978236;28;1266;-54
2023/12/14 00:14:27;;;;;;;;;;;;;;;17.41;45.71;99888.72;4984648;28;1186;-54
2023/12/14 00:16:52;;;;;;;;;;;;;;;16.49;48.04;99880.69;4984631;28;1084;-54
2023/12/14 00:19:18;;;;;;;;;;;;;;;16.05;49.04;99888.09;4977635;28;1025;-53
2023/12/14 00:21:43;;;;;;;;;;;;;;;15.87;49.51;99886.13;4977856;28;1915;-54
2023/12/14 00:24:09;;;;;;;;;;;;;;;17.41;46.16;99884.03;4983884;28;1057;-55
2023/12/14 00:26:34;;;;;;;;;;;;;;;16.90;47.20;99890.31;4984240;28;1972;-55
2023/12/14 00:29:00;;;;;;;;;;;;;;;16.25;48.42;99902.69;4977489;28;1060;-54
2023/12/14 00:31:26;;;;;;;;;;;;;;;15.94;49.35;99889.31;4977605;28;1025;-54
2023/12/14 00:33:51;;;;;;;;;;;;;;;15.81;49.74;99892.75;4977683;28;1048;-54
2023/12/14 00:36:17;;;;;;;;;;;;;;;17.20;46.56;99891.78;4977547;28;1009;-55
2023/12/14 00:38:43;;;;;;;;;;;;;;;17.26;46.28;99898.00;4977463;28;1137;-54
2023/12/14 00:41:08;;;;;;;;;;;;;;;16.45;47.99;99889.81;4992256;28;1109;-55
2023/12/14 00:43:34;;;;;;;;;;;;;;;16.10;49.19;99891.91;4989954;28;1168;-53
2023/12/14 00:45:59;;;;;;;;;;;;;;;15.79;49.93;99903.16;4977477;28;1903;-51
2023/12/14 00:48:25;;;;;;;;;;;;;;;17.21;46.39;99889.88;4978042;28;1164;-54
2023/12/14 00:50:50;;;;;;;;;;;;;;;16.97;46.83;99885.28;4977467;28;1087;-54
2023/12/14 00:53:16;;;;;;;;;;;;;;;16.19;48.94;99901.13;4976852;28;1946;-55
2023/12/14 00:55:41;;;;;;;;;;;;;;;15.92;49.46;99886.03;4977659;28;1069;-53
2023/12/14 00:58:07;;;;;;;;;;;;;;;15.94;49.63;99875.63;4976963;28;1513;-54
2023/12/14 01:00:32;;;;;;;;;;;;;;;17.42;46.15;99880.16;4986016;28;1091;-54
2023/12/14 01:02:58;;;;;;;;;;;;;;;16.65;47.45;99873.09;4982117;28;1077;-54
2023/12/14 01:05:23;;;;;;;;;;;;;;;16.15;48.76;99875.38;4996388;28;1976;-54
2023/12/14 01:07:49;;;;;;;;;;;;;;;15.85;49.77;99872.69;4978460;28;1097;-53
2023/12/14 01:10:14;;;;;;;;;;;;;;;15.67;50.11;99887.09;4988773;28;986;-54
2023/12/14 01:12:40;;;;;;;;;;;;;;;17.14;46.67;99878.44;4978827;28;1203;-54
2023/12/14 01:15:06;;;;;;;;;;;;;;;17.19;46.12;99879.16;4977627;28;1155;-53
2023/12/14 01:17:31;;;;;;;;;;;;;;;16.34;48.25;99869.94;4994689;28;1024;-53
2023/12/14 01:19:57;;;;;;;;;;;;;;;16.00;49.45;99874.44;4985304;28;1169;-54
2023/12/14 01:22:22;;;;;;;;;;;;;;;15.81;49.76;99870.81;4982123;28;1808;-54
2023/12/14 01:24:48;;;;;;;;;;;;;;;17.33;46.08;99864.66;4985347;28;1087;-54
2023/12/14 01:27:14;;;;;;;;;;;;;;;16.79;47.09;99861.34;4976636;28;1914;-55
2023/12/14 01:29:39;;;;;;;;;;;;;;;16.20;48.66;99861.59;4977271;28;1051;-54
2023/12/14 01:32:05;;;;;;;;;;;;;;;15.91;49.37;99860.56;4977036;28;1168;-55
2023/12/14 01:34:30;;;;;;;;;;;;;;;15.89;49.60;99857.31;4988499;28;1038;-52
2023/12/14 01:36:56;;;;;;;;;;;;;;;17.39;46.05;99853.28;4977892;28;1014;-53
2023/12/14 01:39:22;;;;;;;;;;;;;;;16.60;47.81;99854.75;4977435;28;1062;-52
2023/12/14 01:41:49;;;;;;;;;;;;;;;16.11;48.94;99835.94;4976721;28;1029;-53
2023/12/14 01:44:14;;;;;;;;;;;;;;;15.80;49.82;99850.00;4976809;28;1208;-54
2023/12/14 01:46:40;;;;;;;;;;;;;;;16.92;47.32;99855.16;4980766;28;1902;-51
2023/12/14 01:49:05;;;;;;;;;;;;;;;17.36;45.73;99840.16;4986284;28;1024;-54
2023/12/14 01:51:31;;;;;;;;;;;;;;;16.49;47.84;99846.97;4976535;28;1944;-52
2023/12/14 01:53:56;;;;;;;;;;;;;;;16.03;49.19;99845.63;4977419;28;1220;-54
2023/12/14 01:56:22;;;;;;;;;;;;;;;15.83;49.81;99850.22;4979754;28;1024;-55
2023/12/14 01:58:47;;;;;;;;;;;;;;;16.71;47.73;99843.63;4995891;28;1111;-54
2023/12/14 02:01:31;;;;;;;;;;;;;;;17.48;45.69;99847.91;4979766;28;1223;-55
2023/12/14 02:03:57;;;;;;;;;;;;;;;16.42;48.32;99858.28;4992441;28;1111;-52
2023/12/14 02:06:22;;;;;;;;;;;;;;;16.07;49.29;99850.25;4986157;28;1902;-54
2023/12/14 02:08:48;;;;;;;;;;;;;;;16.20;48.92;99851.47;4987330;28;1136;-54
2023/12/14 02:11:14;;;;;;;;;;;;;;;17.56;45.62;99841.72;4980750;28;1100;-56
2023/12/14 02:13:39;;;;;;;;;;;;;;;16.61;47.75;99852.84;4992655;28;1049;-55
2023/12/14 02:16:05;;;;;;;;;;;;;;;16.11;49.10;99855.13;4993878;28;1044;-53
2023/12/14 02:18:30;;;;;;;;;;;;;;;15.87;49.56;99847.72;4992487;28;1020;-53
2023/12/14 02:20:56;;;;;;;;;;;;;;;17.15;46.81;99847.09;4985620;28;1452;-53
2023/12/14 02:23:21;;;;;;;;;;;;;;;16.88;47.12;99843.09;4993907;28;2104;-54
2023/12/14 02:25:47;;;;;;;;;;;;;;;16.25;48.56;99847.81;4993012;28;1898;-54
2023/12/14 02:28:12;;;;;;;;;;;;;;;15.97;49.59;99844.06;4980400;28;1136;-57
2023/12/14 02:30:38;;;;;;;;;;;;;;;16.57;48.24;99840.81;4985880;28;1002;-56
2023/12/14 02:33:03;;;;;;;;;;;;;;;17.20;46.50;99836.03;4998687;28;1059;-57
2023/12/14 02:35:29;;;;;;;;;;;;;;;16.39;48.35;99836.94;4979563;28;1005;-55
2023/12/14 02:37:54;;;;;;;;;;;;;;;15.98;49.44;99848.44;4980700;28;1033;-54
2023/12/14 02:40:20;;;;;;;;;;;;;;;16.20;49.21;99845.97;4980005;28;1040;-56
2023/12/14 02:42:45;;;;;;;;;;;;;;;17.53;45.70;99842.31;4991237;28;1330;-56
2023/12/14 02:45:11;;;;;;;;;;;;;;;16.61;47.65;99839.13;4985825;28;1126;-55
2023/12/14 02:47:36;;;;;;;;;;;;;;;16.11;48.98;99833.19;4998817;28;1993;-57
2023/12/14 02:50:02;;;;;;;;;;;;;;;15.79;49.78;99840.94;4980512;28;1005;-58
2023/12/14 02:52:27;;;;;;;;;;;;;;;16.79;47.41;99836.66;4978971;28;1862;-53
2023/12/14 02:54:53;;;;;;;;;;;;;;;17.21;46.48;99837.69;4979534;28;1099;-57
2023/12/14 02:57:18;;;;;;;;;;;;;;;16.32;48.43;99831.00;4990728;28;1133;-57
2023/12/14 02:59:44;;;;;;;;;;;;;;;15.96;49.30;99845.97;4980396;28;1069;-56
2023/12/14 03:02:10;;;;;;;;;;;;;;;15.78;49.82;99849.44;4979772;28;1048;-56
2023/12/14 03:04:39;;;;;;;;;;;;;;;16.84;47.37;99847.56;4979356;28;1088;-56
2023/12/14 03:07:05;;;;;;;;;;;;;;;17.34;45.93;99860.81;4978953;28;1918;-56
2023/12/14 03:09:30;;;;;;;;;;;;;;;16.42;48.20;99855.56;4991644;28;1092;-56
2023/12/14 03:11:56;;;;;;;;;;;;;;;15.98;49.69;99862.97;4991067;28;1062;-56
2023/12/14 03:14:22;;;;;;;;;;;;;;;15.79;50.03;99851.06;4992026;28;1051;-56
2023/12/14 03:16:48;;;;;;;;;;;;;;;16.72;47.68;99853.50;4979045;28;1073;-56
2023/12/14 03:19:15;;;;;;;;;;;;;;;17.18;46.51;99852.00;4978747;28;1104;-55
2023/12/14 03:21:40;;;;;;;;;;;;;;;16.36;48.59;99859.50;4978615;28;1821;-56
2023/12/14 03:24:06;;;;;;;;;;;;;;;15.97;49.53;99847.59;4991566;28;1057;-54
2023/12/14 03:26:31;;;;;;;;;;;;;;;15.79;49.92;99851.06;4978582;28;1987;-53
2023/12/14 03:28:57;;;;;;;;;;;;;;;16.58;48.31;99839.72;4993722;28;1126;-51
2023/12/14 03:31:22;;;;;;;;;;;;;;;17.11;46.81;99835.91;4979117;28;1099;-52
2023/12/14 03:33:48;;;;;;;;;;;;;;;16.26;48.94;99833.00;4991137;28;1046;-49
2023/12/14 03:36:13;;;;;;;;;;;;;;;15.89;49.90;99820.81;4978915;28;989;-52
2023/12/14 03:38:39;;;;;;;;;;;;;;;15.64;50.43;99830.13;4979029;28;1148;-52
2023/12/14 03:41:04;;;;;;;;;;;;;;;16.98;47.31;99833.91;4978944;28;977;-51
2023/12/14 03:43:30;;;;;;;;;;;;;;;16.67;47.54;99832.41;4978359;28;1037;-51
2023/12/14 03:45:57;;;;;;;;;;;;;;;16.05;49.19;99843.41;4978101;28;1906;-50
2023/12/14 03:48:22;;;;;;;;;;;;;;;15.79;49.93;99842.84;4977942;28;1025;-51
2023/12/14 03:50:48;;;;;;;;;;;;;;;16.36;48.68;99835.59;4978658;28;1132;-53
2023/12/14 03:53:13;;;;;;;;;;;;;;;17.09;46.63;99840.88;4977538;28;1931;-52
2023/12/14 03:55:39;;;;;;;;;;;;;;;16.13;49.24;99836.44;4978043;28;1108;-52
2023/12/14 03:58:04;;;;;;;;;;;;;;;15.81;50.13;99848.88;4977765;28;1078;-52
2023/12/14 04:00:30;;;;;;;;;;;;;;;15.58;50.41;99845.81;4977944;28;1042;-51
2023/12/14 04:02:55;;;;;;;;;;;;;;;16.93;47.35;99846.63;4982512;28;1100;-50
2023/12/14 04:05:21;;;;;;;;;;;;;;;17.03;46.81;99851.13;5001649;28;1016;-52
2023/12/14 04:07:46;;;;;;;;;;;;;;;16.23;49.01;99852.81;4977446;28;1918;-51
2023/12/14 04:10:12;;;;;;;;;;;;;;;15.88;49.69;99849.38;4992885;28;916;-50
2023/12/14 04:12:38;;;;;;;;;;;;;;;15.72;50.33;99860.47;4977577;28;1021;-49
2023/12/14 04:15:06;;;;;;;;;;;;;;;17.01;47.20;99864.38;4988864;28;1089;-51
2023/12/14 04:17:32;;;;;;;;;;;;;;;16.95;47.15;99871.03;4984179;28;1064;-51
2023/12/14 04:19:58;;;;;;;;;;;;;;;16.12;49.18;99862.22;4984052;28;1147;-51
2023/12/14 04:22:23;;;;;;;;;;;;;;;15.82;50.17;99872.44;4977299;28;1852;-52
2023/12/14 04:24:50;;;;;;;;;;;;;;;15.65;50.64;99870.94;4977256;28;1117;-48
2023/12/14 04:27:15;;;;;;;;;;;;;;;16.55;48.35;99878.69;4977194;28;1934;-52
2023/12/14 04:29:40;;;;;;;;;;;;;;;17.40;46.26;99865.09;4977367;28;1013;-48
2023/12/14 04:32:06;;;;;;;;;;;;;;;16.38;48.40;99855.34;4977439;28;1010;-53
2023/12/14 04:34:31;;;;;;;;;;;;;;;15.99;49.53;99848.16;4976879;28;886;-52
2023/12/14 04:36:57;;;;;;;;;;;;;;;15.82;50.13;99850.53;4976610;28;1097;-54
2023/12/14 04:39:24;;;;;;;;;;;;;;;15.90;50.02;99844.41;4976398;28;1121;-51
2023/12/14 04:41:50;;;;;;;;;;;;;;;17.38;46.19;99831.63;4977078;28;1005;-55
2023/12/14 04:44:16;;;;;;;;;;;;;;;16.60;47.86;99843.75;4977498;28;1060;-57
2023/12/14 04:46:41;;;;;;;;;;;;;;;16.07;49.51;99847.50;4977202;28;1914;-54
2023/12/14 04:49:06;;;;;;;;;;;;;;;15.81;49.87;99855.19;4977103;28;1002;-55
2023/12/14 04:51:32;;;;;;;;;;;;;;;15.70;50.33;99845.41;4977483;28;1050;-54
2023/12/14 04:53:57;;;;;;;;;;;;;;;17.19;46.73;99839.91;4988509;28;1107;-54
2023/12/14 04:56:23;;;;;;;;;;;;;;;16.73;47.90;99844.97;4991730;28;1159;-55
2023/12/14 04:58:48;;;;;;;;;;;;;;;16.16;49.26;99849.56;4977165;28;854;-53
2023/12/14 05:01:14;;;;;;;;;;;;;;;15.76;50.03;99846.19;4982711;28;1134;-57
2023/12/14 05:03:40;;;;;;;;;;;;;;;15.66;50.58;99853.41;4985923;28;1148;-57
2023/12/14 05:06:06;;;;;;;;;;;;;;;17.17;46.84;99855.88;4980919;28;1985;-60
2023/12/14 05:08:31;;;;;;;;;;;;;;;16.77;47.54;99840.53;4985857;28;1172;-59
2023/12/14 05:10:57;;;;;;;;;;;;;;;16.11;49.19;99841.44;4985213;28;1112;-60
2023/12/14 05:13:22;;;;;;;;;;;;;;;15.86;50.08;99835.13;4985873;28;1106;-58
2023/12/14 05:15:48;;;;;;;;;;;;;;;16.93;47.47;99843.88;4994201;28;1105;-58
2023/12/14 05:18:13;;;;;;;;;;;;;;;17.10;46.74;99840.56;4985361;28;1138;-62
2023/12/14 05:20:39;;;;;;;;;;;;;;;16.29;48.79;99837.09;4990368;28;1080;-58
2023/12/14 05:23:04;;;;;;;;;;;;;;;15.98;49.79;99838.28;4980053;28;1005;-59
2023/12/14 05:25:30;;;;;;;;;;;;;;;15.69;50.31;99835.56;4993926;28;1048;-56
2023/12/14 05:27:56;;;;;;;;;;;;;;;17.03;46.99;99834.66;4983465;28;1910;-58
2023/12/14 05:30:21;;;;;;;;;;;;;;;17.28;46.17;99832.59;4977395;28;1262;-57
2023/12/14 05:32:46;;;;;;;;;;;;;;;16.25;48.16;99832.16;4996030;28;1191;-58
2023/12/14 05:35:12;;;;;;;;;;;;;;;17.72;45.69;99838.69;4993191;28;837;-61
2023/12/14 05:37:41;;;;;;;;;;;;;;;16.85;47.01;99829.97;4989392;28;1024;-59
2023/12/14 05:40:07;;;;;;;;;;;;;;;17.37;46.39;99836.28;4986409;28;1208;-60
2023/12/14 05:42:33;;;;;;;;;;;;;;;17.99;44.65;99840.66;4990358;28;1122;-60
2023/12/14 05:44:59;;;;;;;;;;;;;;;16.81;47.27;99835.25;4996942;28;1064;-56
2023/12/14 05:47:26;;;;;;;;;;;;;;;17.70;45.75;99840.94;4984908;28;1969;-59
2023/12/14 05:49:51;;;;;;;;;;;;;;;17.27;46.53;99829.03;4984051;28;1176;-60
2023/12/14 05:52:16;;;;;;;;;;;;;;;16.88;47.55;99832.13;5000400;28;1051;-60
2023/12/14 05:54:42;;;;;;;;;;;;;;;18.23;44.43;99834.09;4996144;28;1140;-58
2023/12/14 05:57:08;;;;;;;;;;;;;;;17.04;46.73;99835.47;4990030;28;1123;-60
2023/12/14 05:59:33;;;;;;;;;;;;;;;16.72;46.81;99839.78;4987623;28;1139;-57
2023/12/14 06:01:59;;;;;;;;;;;;;;;17.97;45.16;99842.91;4999488;28;1111;-56
2023/12/14 06:04:25;;;;;;;;;;;;;;;16.96;46.86;99841.63;4985253;28;1136;-56
2023/12/14 06:06:51;;;;;;;;;;;;;;;17.55;46.57;99855.75;4982256;28;1902;-57
2023/12/14 06:09:19;;;;;;;;;;;;;;;17.41;46.25;99840.06;4999043;28;1084;-57
2023/12/14 06:11:44;;;;;;;;;;;;;;;16.84;47.49;99842.06;4976542;28;1115;-56
2023/12/14 06:14:10;;;;;;;;;;;;;;;18.43;44.20;99841.13;4966396;28;1350;-57
2023/12/14 06:16:35;;;;;;;;;;;;;;;17.20;46.53;99844.28;4972709;28;1342;-57
2023/12/14 06:19:01;;;;;;;;;;;;;;;16.72;47.30;99839.78;4960163;28;1350;-58
2023/12/14 06:21:28;;;;;;;;;;;;;;;18.15;45.12;99859.63;4973784;28;1278;-56
2023/12/14 06:23:55;;;;;;;;;;;;;;;17.00;47.07;99857.22;4965007;28;1345;-58
2023/12/14 06:26:20;;;;;;;;;;;;;;;18.32;44.82;99868.06;4995639;28;1902;-58
2023/12/14 06:28:46;;;;;;;;;;;;;;;17.76;45.76;99867.19;4986297;28;1187;-56
2023/12/14 06:31:12;;;;;;;;;;;;;;;17.17;46.61;99866.88;4988053;28;1083;-55
2023/12/14 06:33:37;;;;;;;;;;;;;;;16.86;46.52;99872.81;4984216;28;1028;-57
2023/12/14 06:36:04;;;;;;;;;;;;;;;16.69;45.97;99873.28;4993212;28;873;-56
2023/12/14 06:38:31;;;;;;;;;;;;;;;17.75;46.05;99871.91;4982354;28;1051;-60
2023/12/14 06:40:56;;;;;;;;;;;;;;;16.87;47.63;99872.50;4979557;28;1066;-61
2023/12/14 06:43:22;;;;;;;;;;;;;;;17.22;47.34;99866.75;4979466;28;1312;-58
2023/12/14 06:45:47;;;;;;;;;;;;;;;17.42;46.98;99871.91;4980556;28;1906;-58
2023/12/14 06:48:13;;;;;;;;;;;;;;;17.04;47.86;99873.91;4972481;28;1366;-59
2023/12/14 06:50:38;;;;;;;;;;;;;;;18.64;44.32;99869.81;4980359;28;1044;-58
2023/12/14 06:53:04;;;;;;;;;;;;;;;17.39;46.61;99861.53;4986798;28;1241;-61
2023/12/14 06:55:29;;;;;;;;;;;;;;;17.00;46.88;99861.88;4989125;28;1063;-61
2023/12/14 06:57:55;;;;;;;;;;;;;;;16.86;47.13;99857.13;4992846;28;1072;-62
2023/12/14 07:00:20;;;;;;;;;;;;;;;18.43;44.94;99866.72;4996486;28;914;-63
2023/12/14 07:02:46;;;;;;;;;;;;;;;17.30;46.92;99866.06;4985658;28;1171;-65
2023/12/14 07:05:11;;;;;;;;;;;;;;;17.72;46.77;99866.19;4998540;28;1545;-59
2023/12/14 07:07:37;;;;;;;;;;;;;;;18.07;45.43;99861.94;4988569;28;1918;-61
2023/12/14 07:10:03;;;;;;;;;;;;;;;17.20;46.95;99867.06;4988496;28;1144;-60
2023/12/14 07:12:28;;;;;;;;;;;;;;;17.00;46.52;99864.63;4995996;28;876;-62
2023/12/14 07:14:54;;;;;;;;;;;;;;;18.25;45.21;99867.66;4989330;28;1080;-60
2023/12/14 07:17:19;;;;;;;;;;;;;;;17.19;47.30;99865.41;4982074;28;1124;-60
2023/12/14 07:19:45;;;;;;;;;;;;;;;17.85;46.37;99870.88;4988769;28;1130;-60
2023/12/14 07:22:10;;;;;;;;;;;;;;;17.89;46.04;99882.09;5006864;28;1028;-59
2023/12/14 07:24:36;;;;;;;;;;;;;;;17.12;47.19;99869.69;4987746;28;929;-64
2023/12/14 07:27:01;;;;;;;;;;;;;;;18.20;45.68;99879.59;4978496;28;1977;-59
2023/12/14 07:29:27;;;;;;;;;;;;;;;17.29;46.83;99878.19;4976168;28;1131;-60
2023/12/14 07:31:52;;;;;;;;;;;;;;;17.37;47.44;99885.75;4972713;28;1301;-57
2023/12/14 07:34:20;;;;;;;;;;;;;;;17.89;46.07;99882.09;4997956;28;1040;-59
2023/12/14 07:36:45;;;;;;;;;;;;;;;17.14;46.91;99884.75;4977845;28;1034;-58
2023/12/14 07:39:11;;;;;;;;;;;;;;;16.94;46.71;99891.34;4978348;28;1092;-58
2023/12/14 07:41:36;;;;;;;;;;;;;;;17.78;46.55;99882.28;4980689;28;1149;-58
2023/12/14 07:44:02;;;;;;;;;;;;;;;17.34;47.16;99883.59;4988722;28;1231;-59
2023/12/14 07:46:28;;;;;;;;;;;;;;;17.12;47.56;99886.16;4978102;28;1898;-57
2023/12/14 07:48:54;;;;;;;;;;;;;;;18.28;45.16;99891.81;4988521;28;823;-58
2023/12/14 07:51:20;;;;;;;;;;;;;;;17.23;47.02;99888.44;4991379;28;1036;-59
2023/12/14 07:53:46;;;;;;;;;;;;;;;16.96;47.18;99902.03;4977904;28;1043;-61
2023/12/14 07:56:12;;;;;;;;;;;;;;;18.38;45.19;99894.34;4980481;28;1100;-61
2023/12/14 07:58:37;;;;;;;;;;;;;;;17.37;47.09;99891.22;4988831;28;1087;-62
2023/12/14 08:01:03;;;;;;;;;;;;;;;16.97;46.85;99892.69;4981313;28;1168;-62
2023/12/14 08:03:28;;;;;;;;;;;;;;;18.36;45.39;99902.09;4983308;28;1242;-60
2023/12/14 08:05:54;;;;;;;;;;;;;;;17.31;47.05;99905.38;4984011;28;1974;-61
2023/12/14 08:08:19;;;;;;;;;;;;;;;17.42;47.47;99890.34;4996987;28;1111;-62
2023/12/14 08:10:45;;;;;;;;;;;;;;;17.72;46.63;99882.66;4994460;28;1080;-60
2023/12/14 08:13:10;;;;;;;;;;;;;;;17.16;47.28;99877.00;4987304;28;1152;-63
2023/12/14 08:15:36;;;;;;;;;;;;;;;18.37;45.48;99891.88;4990486;28;1093;-60
2023/12/14 08:18:02;;;;;;;;;;;;;;;17.41;47.32;99884.03;4977993;28;1024;-59
2023/12/14 08:20:27;;;;;;;;;;;;;;;17.10;47.04;99887.28;4991436;28;1131;-63
2023/12/14 08:22:52;;;;;;;;;;;;;;;18.05;46.20;99874.41;4986348;28;1068;-57
2023/12/14 08:25:18;;;;;;;;;;;;;;;17.20;47.37;99869.00;4991046;28;1061;-59
2023/12/14 08:27:44;;;;;;;;;;;;;;;17.00;46.97;99862.72;4987066;28;1906;-61
2023/12/14 08:30:10;;;;;;;;;;;;;;;17.33;47.42;99883.91;4997457;28;1166;-60
2023/12/14 08:32:36;;;;;;;;;;;;;;;17.39;47.28;99888.19;4987286;28;1168;-59
2023/12/14 08:35:01;;;;;;;;;;;;;;;17.68;47.07;99887.16;4992648;28;1180;-59
2023/12/14 08:37:27;;;;;;;;;;;;;;;18.89;44.18;99875.13;4979026;28;1116;-58
2023/12/14 08:39:52;;;;;;;;;;;;;;;17.57;46.74;99864.50;4969042;28;1135;-59
2023/12/14 08:42:18;;;;;;;;;;;;;;;17.21;46.63;99874.19;4987476;28;1726;-58
2023/12/14 08:44:43;;;;;;;;;;;;;;;17.93;46.72;99878.44;4962475;28;1258;-59
2023/12/14 08:47:09;;;;;;;;;;;;;;;17.72;46.72;99877.19;4968715;28;1997;-59
2023/12/14 08:49:35;;;;;;;;;;;;;;;17.28;46.94;99871.06;4970474;28;1096;-58
2023/12/14 08:52:00;;;;;;;;;;;;;;;18.09;46.43;99881.72;4981472;28;1155;-59
2023/12/14 08:54:26;;;;;;;;;;;;;;;17.28;47.32;99874.63;4961626;28;1305;-58
2023/12/14 08:56:52;;;;;;;;;;;;;;;17.70;47.30;99877.47;4978390;28;1569;-58
2023/12/14 08:59:19;;;;;;;;;;;;;;;18.15;45.92;99884.38;4982957;28;1258;-62
2023/12/14 09:01:44;;;;;;;;;;;;;;;17.28;47.13;99876.56;4965719;28;1333;-60
2023/12/14 09:04:10;;;;;;;;;;;;;;;17.08;46.72;99875.78;4959775;28;1384;-59
2023/12/14 09:06:35;;;;;;;;;;;;;;;17.77;47.10;99866.91;4963640;28;1902;-62
2023/12/14 09:09:02;;;;;;;;;;;;;;;17.55;47.10;99864.00;4973553;28;1254;-60
2023/12/14 09:11:27;;;;;;;;;;;;;;;17.08;46.95;99858.47;4988195;28;1048;-59
2023/12/14 09:13:53;;;;;;;;;;;;;;;18.32;45.88;99859.78;4995974;28;1095;-59
2023/12/14 09:16:19;;;;;;;;;;;;;;;17.31;47.37;99855.91;4966448;28;1333;-61
2023/12/14 09:18:44;;;;;;;;;;;;;;;17.05;46.90;99848.88;4970471;28;1108;-61
2023/12/14 09:21:09;;;;;;;;;;;;;;;18.25;46.21;99860.19;4997284;28;1085;-58
2023/12/14 09:23:35;;;;;;;;;;;;;;;17.43;47.38;99854.31;4978674;28;1278;-61
2023/12/14 09:26:00;;;;;;;;;;;;;;;17.00;47.43;99843.50;4999642;28;1983;-57
2023/12/14 09:28:26;;;;;;;;;;;;;;;16.96;47.02;99842.47;4994030;28;1127;-57
2023/12/14 09:30:52;;;;;;;;;;;;;;;18.17;46.25;99843.59;4992481;28;1053;-58
2023/12/14 09:33:18;;;;;;;;;;;;;;;17.19;47.65;99832.47;4975230;28;1527;-57
2023/12/14 09:35:43;;;;;;;;;;;;;;;17.41;47.86;99848.28;4964394;28;1349;-57
2023/12/14 09:38:09;;;;;;;;;;;;;;;17.68;47.09;99846.72;4973248;28;1099;-58
2023/12/14 09:40:34;;;;;;;;;;;;;;;17.02;47.47;99841.25;4967430;28;1325;-58
2023/12/14 09:43:00;;;;;;;;;;;;;;;16.88;46.80;99837.63;4976188;28;1385;-60
2023/12/14 09:45:29;;;;;;;;;;;;;;;17.72;47.03;99844.97;4994904;28;1123;-57
2023/12/14 09:47:55;;;;;;;;;;;;;;;17.06;47.57;99836.00;4964238;28;1914;-59
2023/12/14 09:50:21;;;;;;;;;;;;;;;17.68;47.65;99843.16;4985022;28;1143;-61
2023/12/14 09:52:48;;;;;;;;;;;;;;;17.48;47.43;99839.66;4994627;28;1056;-58
2023/12/14 09:55:14;;;;;;;;;;;;;;;16.89;47.67;99834.59;4982578;28;1191;-59
2023/12/14 09:57:40;;;;;;;;;;;;;;;17.99;46.84;99839.84;4990846;28;1072;-59
2023/12/14 10:00:10;;;;;;;;;;;;;;;17.49;47.61;99824.81;4986108;28;1126;-59
2023/12/14 10:02:35;;;;;;;;;;;;;;;17.01;47.63;99831.41;4988655;28;1071;-60
2023/12/14 10:05:01;;;;;;;;;;;;;;;18.09;46.41;99826.69;4997670;28;1109;-58
2023/12/14 10:07:26;;;;;;;;;;;;;;;17.26;47.50;99823.84;4988959;28;1981;-57
2023/12/14 10:09:53;;;;;;;;;;;;;;;17.62;47.57;99813.00;4993117;28;1230;-56
2023/12/14 10:12:18;;;;;;;;;;;;;;;17.84;46.81;99816.16;4985393;28;1068;-58
2023/12/14 10:14:44;;;;;;;;;;;;;;;17.21;47.62;99813.75;4993907;28;1099;-58
2023/12/14 10:17:19;;;;;;;;;;;;;;;17.70;47.51;99808.75;4989979;28;1041;-59
2023/12/14 10:19:45;;;;;;;;;;;;;;;17.87;46.79;99799.06;4993257;28;1075;-58
2023/12/14 10:22:11;;;;;;;;;;;;;;;17.23;47.41;99811.50;4991740;28;1029;-58
2023/12/14 10:24:36;;;;;;;;;;;;;;;17.04;47.18;99814.31;4990672;28;1048;-58
2023/12/14 10:27:07;;;;;;;;;;;;;;;18.56;45.54;99829.25;4991592;28;1989;-58
2023/12/14 10:29:34;;;;;;;;;;;;;;;17.48;47.32;99823.16;4990411;28;1124;-58
2023/12/14 10:31:59;;;;;;;;;;;;;;;17.10;47.32;99824.09;4993754;28;1035;-58
2023/12/14 10:34:25;;;;;;;;;;;;;;;17.24;47.38;99815.09;4985930;28;1040;-58
2023/12/14 10:36:50;;;;;;;;;;;;;;;17.73;47.10;99818.31;4990751;28;1132;-58
2023/12/14 10:39:16;;;;;;;;;;;;;;;17.20;47.59;99822.31;4988509;28;1223;-58
2023/12/14 10:41:41;;;;;;;;;;;;;;;16.96;47.17;99809.50;4995304;28;1103;-60
2023/12/14 10:44:07;;;;;;;;;;;;;;;18.46;46.00;99804.72;4978969;28;1093;-58
2023/12/14 10:46:32;;;;;;;;;;;;;;;17.49;47.31;99802.81;4990932;28;1975;-58
2023/12/14 10:48:58;;;;;;;;;;;;;;;17.11;47.33;99816.69;4987874;28;1136;-59
2023/12/14 10:51:23;;;;;;;;;;;;;;;17.61;47.27;99818.81;4984446;28;1397;-59
2023/12/14 10:53:49;;;;;;;;;;;;;;;17.43;47.87;99809.50;4989074;28;1199;-56
2023/12/14 10:56:15;;;;;;;;;;;;;;;17.03;47.59;99804.44;4993929;28;1203;-57
2023/12/14 10:58:53;;;;;;;;;;;;;;;17.78;47.59;99805.28;4988718;28;1124;-59
2023/12/14 11:01:19;;;;;;;;;;;;;;;17.25;47.97;99805.72;4989996;28;1234;-58
2023/12/14 11:03:44;;;;;;;;;;;;;;;16.99;47.57;99806.16;4968692;28;1448;-58
2023/12/14 11:06:28;;;;;;;;;;;;;;;18.20;46.45;99796.22;4995009;28;1973;-58
2023/12/14 11:08:57;;;;;;;;;;;;;;;17.21;48.06;99807.47;4998132;28;1024;-57
2023/12/14 11:11:25;;;;;;;;;;;;;;;16.97;47.59;99802.06;4997119;28;1044;-59
2023/12/14 11:13:52;;;;;;;;;;;;;;;17.95;47.45;99810.19;4992684;28;1290;-60
2023/12/14 11:16:20;;;;;;;;;;;;;;;17.26;47.99;99799.09;5013401;28;1009;-58
2023/12/14 11:18:45;;;;;;;;;;;;;;;17.18;48.45;99789.63;4998011;28;1099;-58
2023/12/14 11:21:11;;;;;;;;;;;;;;;17.81;47.39;99795.63;4998001;28;968;-60
2023/12/14 11:23:36;;;;;;;;;;;;;;;17.13;47.68;99797.16;4996923;28;1389;-58
2023/12/14 11:26:05;;;;;;;;;;;;;;;17.26;48.07;99804.59;4996154;28;1918;-59
2023/12/14 11:28:35;;;;;;;;;;;;;;;18.10;46.80;99805.50;4979628;28;1392;-58
2023/12/14 11:31:01;;;;;;;;;;;;;;;17.19;48.07;99815.97;4996687;28;1131;-59
2023/12/14 11:33:28;;;;;;;;;;;;;;;17.49;47.95;99807.47;4972232;28;1179;-58
2023/12/14 11:35:54;;;;;;;;;;;;;;;18.09;47.00;99814.88;4996643;28;1036;-56
2023/12/14 11:38:20;;;;;;;;;;;;;;;17.40;47.39;99812.88;4981993;28;912;-58
2023/12/14 11:40:47;;;;;;;;;;;;;;;17.00;47.48;99796.81;4987610;28;1142;-57
2023/12/14 11:43:13;;;;;;;;;;;;;;;18.22;47.01;99803.03;4984481;28;1365;-60
2023/12/14 11:45:38;;;;;;;;;;;;;;;17.40;47.90;99805.47;4993794;28;1214;-60
2023/12/14 11:48:05;;;;;;;;;;;;;;;17.01;47.56;99803.09;4965217;28;1906;-57
2023/12/14 11:50:32;;;;;;;;;;;;;;;17.97;47.44;99801.63;4993081;28;1340;-60
2023/12/14 11:52:57;;;;;;;;;;;;;;;17.22;48.23;99798.06;4984936;28;1024;-61
2023/12/14 11:55:22;;;;;;;;;;;;;;;17.06;47.52;99801.09;4978159;28;1564;-60
2023/12/14 11:57:48;;;;;;;;;;;;;;;17.87;47.26;99807.34;4987140;28;1069;-61
2023/12/14 12:00:14;;;;;;;;;;;;;;;17.11;48.31;99802.94;4987716;28;1206;-59
2023/12/14 12:02:43;;;;;;;;;;;;;;;17.49;48.17;99796.50;4982562;28;1006;-62
2023/12/14 12:05:13;;;;;;;;;;;;;;;17.54;48.06;99804.66;4997511;28;1109;-59
2023/12/14 12:07:38;;;;;;;;;;;;;;;17.14;48.23;99794.09;4979089;28;1903;-58
2023/12/14 12:10:06;;;;;;;;;;;;;;;18.47;46.17;99792.59;4988342;28;1176;-58
2023/12/14 12:12:32;;;;;;;;;;;;;;;17.38;47.94;99802.19;4983796;28;1156;-58
2023/12/14 12:14:58;;;;;;;;;;;;;;;17.15;47.39;99792.16;4986057;28;972;-58
2023/12/14 12:17:23;;;;;;;;;;;;;;;17.09;47.90;99796.94;4995125;28;1125;-58
2023/12/14 12:19:49;;;;;;;;;;;;;;;17.79;47.72;99808.84;4996766;28;949;-58
2023/12/14 12:22:14;;;;;;;;;;;;;;;17.15;48.30;99811.38;4976997;28;1191;-59
2023/12/14 12:24:40;;;;;;;;;;;;;;;16.95;47.66;99810.63;4964391;28;1377;-60
2023/12/14 12:27:06;;;;;;;;;;;;;;;17.72;47.85;99806.50;4965958;28;1977;-60
2023/12/14 12:29:32;;;;;;;;;;;;;;;17.49;48.37;99808.31;4960783;28;1313;-58
2023/12/14 12:31:57;;;;;;;;;;;;;;;17.14;47.82;99799.59;4981528;28;1115;-56
2023/12/14 12:34:23;;;;;;;;;;;;;;;16.96;46.96;99808.69;4981718;28;1148;-58
2023/12/14 12:36:48;;;;;;;;;;;;;;;18.04;47.48;99804.78;4988442;28;1144;-58
2023/12/14 12:39:14;;;;;;;;;;;;;;;17.38;48.36;99806.88;4987166;28;1133;-58
2023/12/14 12:41:39;;;;;;;;;;;;;;;16.97;47.91;99813.06;4996654;28;1055;-60
2023/12/14 12:44:05;;;;;;;;;;;;;;;18.18;47.33;99812.22;4996528;28;1059;-56
2023/12/14 12:46:32;;;;;;;;;;;;;;;17.22;48.45;99814.56;4980391;28;1894;-57
2023/12/14 12:48:57;;;;;;;;;;;;;;;16.99;47.71;99822.63;4978168;28;1148;-57
2023/12/14 12:51:23;;;;;;;;;;;;;;;16.81;47.30;99820.69;4992779;28;1064;-58